createdAt,value
2019-02-19T00:00:07.189Z,26.53
2019-02-19T00:02:36.207Z,24.87
2019-02-19T00:05:05.728Z,23.17
2019-02-19T00:07:34.560Z,23.70
2019-02-19T00:10:03.791Z,19.50
2019-02-19T00:12:32.665Z,20.73
2019-02-19T00:15:07.970Z,24.53
2019-02-19T00:17:32.165Z,24.00
2019-02-19T00:20:00.914Z,20.30
2019-02-19T00:22:29.861Z,25.00
2019-02-19T00:24:59.040Z,24.63
2019-02-19T00:27:27.766Z,26.13
2019-02-19T00:29:56.850Z,24.37
2019-02-19T00:32:25.872Z,23.70
2019-02-19T00:34:54.578Z,24.73
2019-02-19T00:37:31.299Z,18.70
2019-02-19T00:40:00.197Z,24.00
2019-02-19T00:42:28.958Z,22.10
2019-02-19T00:44:58.109Z,23.27
2019-02-19T00:47:26.935Z,20.90
2019-02-19T00:49:55.853Z,22.00
2019-02-19T00:52:25.047Z,22.30
2019-02-19T00:54:53.893Z,22.23
2019-02-19T00:57:22.747Z,18.27
2019-02-19T00:59:51.933Z,20.63
2019-02-19T01:02:20.731Z,27.97
2019-02-19T01:04:49.729Z,27.10
2019-02-19T01:07:18.905Z,21.97
2019-02-19T01:09:47.699Z,26.70
2019-02-19T01:12:17.915Z,19.47
2019-02-19T01:14:46.850Z,18.47
2019-02-19T01:17:15.652Z,24.37
2019-02-19T01:19:44.664Z,22.80
2019-02-19T01:22:13.625Z,25.23
2019-02-19T01:24:42.445Z,20.20
2019-02-19T01:27:11.533Z,23.30
2019-02-19T01:29:59.879Z,18.57
2019-02-19T01:32:28.784Z,20.87
2019-02-19T01:34:57.577Z,24.03
2019-02-19T01:37:26.621Z,18.70
2019-02-19T01:39:55.472Z,23.60
2019-02-19T01:42:24.523Z,21.23
2019-02-19T01:44:53.446Z,23.30
2019-02-19T01:47:22.276Z,25.90
2019-02-19T01:49:51.260Z,17.87
2019-02-19T01:52:20.277Z,14.33
2019-02-19T01:54:49.407Z,24.37
2019-02-19T01:57:18.308Z,21.80
2019-02-19T01:59:47.519Z,21.63
2019-02-19T02:02:16.537Z,23.43
2019-02-19T02:04:45.235Z,24.80
2019-02-19T02:07:14.254Z,23.43
2019-02-19T02:09:43.306Z,22.97
2019-02-19T02:12:12.130Z,20.40
2019-02-19T02:14:42.173Z,23.87
2019-02-19T02:17:11.062Z,20.83
2019-02-19T02:19:40.080Z,22.30
2019-02-19T02:22:08.993Z,20.47
2019-02-19T02:24:37.756Z,16.87
2019-02-19T02:27:06.655Z,17.20
2019-02-19T02:29:35.682Z,21.17
2019-02-19T02:32:04.704Z,23.17
2019-02-19T02:34:33.582Z,21.70
2019-02-19T02:37:02.577Z,21.13
2019-02-19T02:39:31.550Z,21.50
2019-02-19T02:42:00.349Z,22.17
2019-02-19T02:44:29.287Z,24.67
2019-02-19T02:46:58.123Z,21.07
2019-02-19T02:49:27.228Z,23.57
2019-02-19T02:51:56.684Z,25.93
2019-02-19T02:54:25.491Z,25.43
2019-02-19T02:56:54.521Z,25.03
2019-02-19T02:59:23.498Z,29.10
2019-02-19T03:01:55.208Z,25.60
2019-02-19T03:04:24.510Z,24.97
2019-02-19T03:06:57.587Z,33.37
2019-02-19T03:09:29.131Z,30.60
2019-02-19T03:11:57.867Z,27.67
2019-02-19T03:14:26.699Z,28.23
2019-02-19T03:16:55.940Z,33.70
2019-02-19T03:19:24.762Z,30.90
2019-02-19T03:21:53.566Z,24.60
2019-02-19T03:24:41.814Z,26.33
2019-02-19T03:27:10.634Z,28.57
2019-02-19T03:29:39.652Z,27.90
2019-02-19T03:32:08.695Z,26.67
2019-02-19T03:34:37.563Z,35.70
2019-02-19T03:37:06.512Z,25.47
2019-02-19T03:39:35.427Z,23.80
2019-02-19T03:42:04.366Z,26.73
2019-02-19T03:44:33.213Z,34.60
2019-02-19T03:47:02.333Z,24.53
2019-02-19T03:49:31.308Z,32.83
2019-02-19T03:52:00.369Z,22.00
2019-02-19T03:54:29.228Z,26.87
2019-02-19T03:56:58.189Z,28.13
2019-02-19T03:59:27.046Z,29.20
2019-02-19T04:01:56.222Z,24.07
2019-02-19T04:04:25.172Z,24.77
2019-02-19T04:06:54.099Z,26.30
2019-02-19T04:09:23.439Z,26.67
2019-02-19T04:11:52.278Z,34.40
2019-02-19T04:14:21.585Z,29.03
2019-02-19T04:16:50.903Z,29.57
2019-02-19T04:19:21.253Z,29.03
2019-02-19T04:21:50.283Z,27.00
2019-02-19T04:24:19.558Z,26.37
2019-02-19T04:26:48.506Z,22.00
2019-02-19T04:29:17.496Z,28.33
2019-02-19T04:31:46.575Z,23.00
2019-02-19T04:34:15.400Z,28.67
2019-02-19T04:36:44.551Z,25.87
2019-02-19T04:39:13.509Z,22.93
2019-02-19T04:41:42.301Z,29.67
2019-02-19T04:44:11.235Z,25.00
2019-02-19T04:46:40.476Z,25.20
2019-02-19T04:49:09.452Z,27.10
2019-02-19T04:51:38.370Z,32.23
2019-02-19T04:54:07.514Z,26.10
2019-02-19T04:56:36.381Z,30.57
2019-02-19T04:59:05.496Z,27.53
2019-02-19T05:01:34.580Z,36.03
2019-02-19T05:04:03.635Z,29.07
2019-02-19T05:06:32.305Z,28.40
2019-02-19T05:09:01.315Z,30.53
2019-02-19T05:11:30.342Z,24.93
2019-02-19T05:13:59.089Z,20.60
2019-02-19T05:16:28.047Z,28.27
2019-02-19T05:18:56.855Z,27.30
2019-02-19T05:21:25.597Z,24.10
2019-02-19T05:23:54.555Z,24.93
2019-02-19T05:26:23.408Z,28.00
2019-02-19T05:28:52.245Z,25.53
2019-02-19T05:31:22.919Z,32.30
2019-02-19T05:33:51.793Z,28.33
2019-02-19T05:36:20.780Z,34.47
2019-02-19T05:38:49.951Z,26.97
2019-02-19T05:41:21.713Z,24.17
2019-02-19T05:43:51.987Z,24.10
2019-02-19T05:46:21.009Z,16.23
2019-02-19T05:48:50.414Z,20.67
2019-02-19T05:51:19.730Z,20.37
2019-02-19T05:53:51.151Z,18.43
2019-02-19T05:56:20.002Z,18.93
2019-02-19T05:58:49.222Z,18.20
2019-02-19T06:01:18.434Z,18.93
2019-02-19T06:03:47.096Z,15.53
2019-02-19T06:06:15.993Z,14.40
2019-02-19T06:08:45.223Z,12.97
2019-02-19T06:11:13.911Z,16.13
2019-02-19T06:13:42.737Z,12.03
2019-02-19T06:16:11.839Z,14.27
2019-02-19T06:18:40.809Z,15.00
2019-02-19T06:21:09.603Z,14.60
2019-02-19T06:23:38.825Z,17.70
2019-02-19T06:26:07.681Z,13.57
2019-02-19T06:31:11.577Z,10.13
2019-02-19T06:33:40.496Z,10.73
2019-02-19T06:36:09.307Z,15.77
2019-02-19T06:38:38.449Z,17.47
2019-02-19T06:41:07.334Z,11.17
2019-02-19T06:43:36.254Z,12.87
2019-02-19T06:46:05.283Z,13.17
2019-02-19T06:48:34.244Z,12.57
2019-02-19T06:51:03.177Z,11.70
2019-02-19T06:53:32.157Z,16.80
2019-02-19T06:56:00.885Z,12.23
2019-02-19T06:58:30.011Z,10.43
2019-02-19T07:00:58.904Z,11.00
2019-02-19T07:03:32.146Z,12.97
2019-02-19T07:06:01.119Z,8.67
2019-02-19T07:08:30.183Z,10.00
2019-02-19T07:10:59.276Z,11.60
2019-02-19T07:13:28.185Z,9.70
2019-02-19T07:15:57.162Z,9.43
2019-02-19T07:18:26.019Z,11.30
2019-02-19T07:20:55.142Z,11.47
2019-02-19T07:23:24.062Z,9.10
2019-02-19T07:25:53.003Z,7.93
2019-02-19T07:28:21.941Z,9.80
2019-02-19T07:30:52.267Z,10.43
2019-02-19T07:33:22.615Z,7.53
2019-02-19T07:35:52.997Z,9.77
2019-02-19T07:38:21.966Z,7.90
2019-02-19T07:40:52.283Z,7.77
2019-02-19T07:43:21.810Z,6.37
2019-02-19T07:45:52.290Z,9.70
2019-02-19T07:48:21.522Z,6.60
2019-02-19T07:50:52.222Z,7.33
2019-02-19T07:53:21.086Z,6.00
2019-02-19T07:55:50.432Z,8.57
2019-02-19T07:58:19.670Z,7.40
2019-02-19T08:00:49.282Z,7.37
2019-02-19T08:03:18.027Z,4.73
2019-02-19T08:05:47.792Z,5.47
2019-02-19T08:08:16.623Z,7.77
2019-02-19T08:10:45.583Z,7.03
2019-02-19T08:13:14.680Z,4.63
2019-02-19T08:15:43.594Z,6.03
2019-02-19T08:18:13.485Z,4.83
2019-02-19T08:20:42.402Z,5.40
2019-02-19T08:23:11.083Z,6.83
2019-02-19T08:25:40.159Z,7.30
2019-02-19T08:28:09.333Z,7.17
2019-02-19T08:30:38.033Z,5.27
2019-02-19T08:33:07.160Z,4.90
2019-02-19T08:35:36.204Z,6.30
2019-02-19T08:38:05.443Z,4.33
2019-02-19T08:40:34.293Z,5.23
2019-02-19T08:43:03.493Z,4.87
2019-02-19T08:45:32.533Z,4.17
2019-02-19T08:48:01.382Z,6.40
2019-02-19T08:50:30.649Z,5.83
2019-02-19T08:52:59.478Z,5.30
2019-02-19T08:55:28.370Z,5.10
2019-02-19T08:57:57.371Z,7.07
2019-02-19T09:00:26.203Z,5.77
2019-02-19T09:02:55.202Z,5.67
2019-02-19T09:05:24.266Z,3.73
2019-02-19T09:07:53.103Z,6.20
2019-02-19T09:10:21.925Z,4.97
2019-02-19T09:12:54.090Z,5.23
2019-02-19T09:15:22.830Z,4.87
2019-02-19T09:17:55.148Z,3.93
2019-02-19T09:20:24.113Z,6.50
2019-02-19T09:22:53.074Z,5.27
2019-02-19T09:25:22.130Z,5.40
2019-02-19T09:27:51.175Z,4.47
2019-02-19T09:30:20.020Z,4.37
2019-02-19T09:32:49.549Z,3.70
2019-02-19T09:35:18.589Z,6.47
2019-02-19T09:37:47.576Z,5.93
2019-02-19T09:40:16.648Z,5.33
2019-02-19T09:42:45.630Z,5.27
2019-02-19T09:45:14.760Z,4.83
2019-02-19T09:47:43.782Z,4.70
2019-02-19T09:50:12.631Z,4.93
2019-02-19T09:53:00.875Z,5.23
2019-02-19T09:55:29.834Z,7.87
2019-02-19T09:57:58.643Z,4.03
2019-02-19T10:00:27.649Z,6.80
2019-02-19T10:02:56.541Z,8.23
2019-02-19T10:05:25.372Z,4.73
2019-02-19T10:07:55.860Z,6.90
2019-02-19T10:10:25.026Z,4.60
2019-02-19T10:12:54.111Z,4.17
2019-02-19T10:15:23.054Z,6.13
2019-02-19T10:17:51.814Z,6.97
2019-02-19T10:20:20.580Z,7.17
2019-02-19T10:22:51.285Z,8.40
2019-02-19T10:25:21.185Z,6.00
2019-02-19T10:27:50.589Z,4.97
2019-02-19T10:30:23.710Z,7.27
2019-02-19T10:32:52.567Z,5.37
2019-02-19T10:35:21.595Z,7.50
2019-02-19T10:37:51.766Z,8.73
2019-02-19T10:40:21.326Z,7.33
2019-02-19T10:42:50.193Z,8.10
2019-02-19T10:45:43.699Z,8.80
2019-02-19T10:48:18.810Z,5.27
2019-02-19T10:50:43.284Z,7.17
2019-02-19T10:53:12.497Z,11.37
2019-02-19T10:55:41.234Z,6.70
2019-02-19T10:58:11.534Z,9.57
2019-02-19T11:00:40.586Z,9.67
2019-02-19T11:03:11.741Z,11.57
2019-02-19T11:05:40.532Z,7.23
2019-02-19T11:08:09.523Z,11.20
2019-02-19T11:10:38.402Z,8.97
2019-02-19T11:13:07.313Z,8.63
2019-02-19T11:15:36.335Z,6.37
2019-02-19T11:18:05.342Z,9.03
2019-02-19T11:20:34.221Z,12.83
2019-02-19T11:23:03.581Z,6.60
2019-02-19T11:25:32.443Z,6.87
2019-02-19T11:28:01.255Z,9.27
2019-02-19T11:30:30.211Z,8.40
2019-02-19T11:32:59.180Z,10.77
2019-02-19T11:35:47.319Z,5.77
2019-02-19T11:38:16.134Z,7.03
2019-02-19T11:40:44.903Z,10.07
2019-02-19T11:43:13.879Z,9.30
2019-02-19T11:45:42.823Z,7.40
2019-02-19T11:48:11.912Z,8.40
2019-02-19T11:50:40.950Z,11.13
2019-02-19T11:53:09.673Z,11.53
2019-02-19T11:55:38.811Z,13.80
2019-02-19T11:58:07.829Z,8.93
2019-02-19T12:00:40.795Z,7.60
2019-02-19T12:03:09.992Z,9.40
2019-02-19T12:05:39.164Z,7.40
2019-02-19T12:08:07.881Z,11.33
2019-02-19T12:10:37.019Z,13.33
2019-02-19T12:13:05.782Z,5.97
2019-02-19T12:15:35.441Z,8.37
2019-02-19T12:18:04.536Z,10.30
2019-02-19T12:20:33.557Z,7.10
2019-02-19T12:23:02.514Z,10.37
2019-02-19T12:25:31.652Z,7.87
2019-02-19T12:28:00.626Z,7.00
2019-02-19T12:30:29.440Z,11.37
2019-02-19T12:32:58.975Z,8.33
2019-02-19T12:35:27.918Z,10.17
2019-02-19T12:37:56.771Z,6.83
2019-02-19T12:40:25.974Z,9.13
2019-02-19T12:42:54.832Z,11.13
2019-02-19T12:45:23.668Z,9.80
2019-02-19T12:47:52.933Z,6.07
2019-02-19T12:50:21.808Z,6.10
2019-02-19T12:52:52.286Z,5.87
2019-02-19T12:55:21.849Z,7.57
2019-02-19T12:57:51.333Z,7.40
2019-02-19T13:00:20.751Z,9.83
2019-02-19T13:02:50.377Z,9.97
2019-02-19T13:05:22.127Z,10.27
2019-02-19T13:07:51.307Z,19.40
2019-02-19T13:10:20.336Z,7.37
2019-02-19T13:12:49.513Z,5.33
2019-02-19T13:15:41.889Z,5.50
2019-02-19T13:18:12.923Z,10.77
2019-02-19T13:20:41.802Z,5.43
2019-02-19T13:23:10.841Z,4.97
2019-02-19T13:25:39.748Z,5.53
2019-02-19T13:28:08.777Z,7.63
2019-02-19T13:30:56.985Z,4.27
2019-02-19T13:33:25.871Z,7.37
2019-02-19T13:35:54.862Z,10.73
2019-02-19T13:38:23.749Z,6.40
2019-02-19T13:40:56.040Z,6.27
2019-02-19T13:43:25.394Z,6.73
2019-02-19T13:45:54.459Z,8.03
2019-02-19T13:48:23.440Z,7.87
2019-02-19T13:50:52.447Z,5.73
2019-02-19T13:53:29.557Z,6.03
2019-02-19T13:56:00.436Z,5.93
2019-02-19T13:58:29.188Z,6.87
2019-02-19T14:00:58.191Z,4.63
2019-02-19T14:03:27.259Z,6.27
2019-02-19T14:05:56.131Z,7.13
2019-02-19T14:08:25.048Z,4.77
2019-02-19T14:10:54.042Z,9.77
2019-02-19T14:13:23.042Z,9.20
2019-02-19T14:15:59.375Z,6.90
2019-02-19T14:18:48.117Z,2.67
2019-02-19T14:21:21.780Z,4.47
2019-02-19T14:24:11.291Z,4.40
2019-02-19T14:26:59.515Z,9.00
2019-02-19T14:29:46.519Z,4.90
2019-02-19T14:32:17.151Z,7.57
2019-02-19T14:35:02.929Z,4.33
2019-02-19T14:37:50.012Z,4.33
2019-02-19T14:40:20.788Z,3.97
2019-02-19T14:43:06.372Z,7.27
2019-02-19T14:45:53.012Z,4.80
2019-02-19T14:48:23.733Z,8.37
2019-02-19T14:50:57.406Z,3.10
2019-02-19T14:53:28.167Z,6.07
2019-02-19T14:56:17.017Z,3.83
2019-02-19T14:58:47.173Z,4.33
2019-02-19T15:01:33.679Z,2.80
2019-02-19T15:07:08.754Z,5.63
2019-02-19T15:09:55.453Z,4.90
2019-02-19T15:12:26.393Z,3.77
2019-02-19T15:14:59.349Z,3.83
2019-02-19T15:17:45.156Z,3.17
2019-02-19T15:20:27.613Z,3.27
2019-02-19T15:23:04.331Z,3.73
2019-02-19T15:25:52.959Z,3.20
2019-02-19T15:28:35.721Z,7.70
2019-02-19T15:31:24.205Z,6.53
2019-02-19T15:34:11.147Z,1.70
2019-02-19T15:36:44.407Z,5.40
2019-02-19T15:39:30.754Z,5.30
2019-02-19T15:45:21.123Z,2.60
2019-02-19T15:48:06.464Z,1.87
2019-02-19T15:50:53.568Z,5.80
2019-02-19T15:53:32.636Z,4.80
2019-02-19T15:56:17.666Z,5.13
2019-02-19T15:58:50.417Z,2.20
2019-02-19T16:01:33.424Z,5.70
2019-02-19T16:04:21.151Z,4.23
2019-02-19T16:06:51.650Z,4.07
2019-02-19T16:09:32.285Z,2.10
2019-02-19T16:14:55.164Z,2.27
2019-02-19T16:17:25.565Z,2.33
2019-02-19T16:19:58.882Z,2.27
2019-02-19T16:22:38.357Z,1.50
2019-02-19T16:25:21.164Z,1.93
2019-02-19T16:28:01.550Z,5.40
2019-02-19T16:30:41.035Z,2.57
2019-02-19T16:33:28.036Z,4.40
2019-02-19T16:36:10.654Z,4.13
2019-02-19T16:38:43.879Z,1.83
2019-02-19T16:41:36.218Z,3.73
2019-02-19T16:44:06.708Z,2.00
2019-02-19T16:46:43.994Z,2.40
2019-02-19T16:49:32.806Z,5.13
2019-02-19T16:52:20.447Z,6.97
2019-02-19T16:54:57.353Z,2.30
2019-02-19T16:57:37.355Z,5.30
2019-02-19T17:00:11.754Z,3.17
2019-02-19T17:05:46.227Z,1.40
2019-02-19T17:08:26.022Z,5.30
2019-02-19T17:11:15.547Z,2.40
2019-02-19T17:14:04.728Z,4.73
2019-02-19T17:16:35.531Z,1.70
2019-02-19T17:19:06.132Z,5.33
2019-02-19T17:21:51.179Z,1.10
2019-02-19T17:24:27.796Z,1.20
2019-02-19T17:27:09.761Z,4.60
2019-02-19T17:29:56.744Z,2.23
2019-02-19T17:32:36.011Z,5.67
2019-02-19T17:35:10.431Z,2.37
2019-02-19T17:37:49.919Z,2.97
2019-02-19T17:40:23.586Z,2.87
2019-02-19T17:42:53.995Z,2.27
2019-02-19T17:45:33.520Z,5.50
2019-02-19T17:48:04.003Z,2.20
2019-02-19T17:50:40.831Z,5.67
2019-02-19T17:53:24.690Z,2.47
2019-02-19T17:55:58.359Z,6.87
2019-02-19T17:58:29.149Z,3.20
2019-02-19T18:01:02.448Z,6.23
2019-02-19T18:03:49.464Z,7.07
2019-02-19T18:06:36.697Z,2.53
2019-02-19T18:09:13.903Z,2.53
2019-02-19T18:11:59.340Z,2.33
2019-02-19T18:14:46.112Z,6.40
2019-02-19T18:17:16.783Z,2.83
2019-02-19T18:19:45.640Z,3.13
2019-02-19T18:22:14.680Z,4.17
2019-02-19T18:24:43.875Z,2.53
2019-02-19T18:27:13.047Z,9.27
2019-02-19T18:29:42.165Z,5.93
2019-02-19T18:32:11.313Z,8.30
2019-02-19T18:34:40.186Z,3.73
2019-02-19T18:37:09.542Z,4.33
2019-02-19T18:39:38.526Z,5.00
2019-02-19T18:42:07.395Z,5.53
2019-02-19T18:44:36.303Z,5.33
2019-02-19T18:47:05.375Z,3.97
2019-02-19T18:49:37.130Z,1.97
2019-02-19T18:52:07.210Z,2.07
2019-02-19T18:54:36.122Z,2.60
2019-02-19T18:57:05.304Z,4.77
2019-02-19T18:59:34.297Z,1.43
2019-02-19T19:02:03.367Z,3.93
2019-02-19T19:04:32.203Z,2.80
2019-02-19T19:07:01.318Z,5.23
2019-02-19T19:09:30.460Z,5.80
2019-02-19T19:11:59.302Z,6.57
2019-02-19T19:14:28.403Z,7.57
2019-02-19T19:16:57.332Z,4.87
2019-02-19T19:19:26.190Z,3.07
2019-02-19T19:21:55.191Z,5.50
2019-02-19T19:24:24.228Z,3.10
2019-02-19T19:26:53.257Z,5.73
2019-02-19T19:29:22.370Z,2.33
2019-02-19T19:31:51.702Z,1.77
2019-02-19T19:34:24.268Z,4.60
2019-02-19T19:36:52.828Z,5.27
2019-02-19T19:39:21.699Z,4.53
2019-02-19T19:41:50.861Z,2.00
2019-02-19T19:44:21.686Z,6.53
2019-02-19T19:46:52.226Z,5.67
2019-02-19T19:49:21.030Z,3.33
2019-02-19T19:51:50.709Z,2.90
2019-02-19T19:54:20.775Z,5.17
2019-02-19T19:56:49.734Z,5.33
2019-02-19T19:59:19.145Z,2.53
2019-02-19T20:01:48.032Z,3.17
2019-02-19T20:04:16.977Z,7.37
2019-02-19T20:06:46.027Z,3.60
2019-02-19T20:09:14.802Z,5.23
2019-02-19T20:11:43.695Z,3.43
2019-02-19T20:14:12.735Z,3.30
2019-02-19T20:16:41.579Z,1.93
2019-02-19T20:19:10.382Z,7.57
2019-02-19T20:21:39.542Z,6.13
2019-02-19T20:24:08.483Z,7.37
2019-02-19T20:26:37.750Z,4.93
2019-02-19T20:29:08.835Z,8.30
2019-02-19T20:31:37.574Z,5.57
2019-02-19T20:34:06.360Z,6.93
2019-02-19T20:36:35.230Z,2.90
2019-02-19T20:39:05.301Z,5.03
2019-02-19T20:41:34.033Z,5.27
2019-02-19T20:44:03.177Z,2.93
2019-02-19T20:46:32.428Z,7.77
2019-02-19T20:49:01.430Z,4.57
2019-02-19T20:51:36.296Z,4.70
2019-02-19T20:54:01.070Z,6.20
2019-02-19T20:56:30.069Z,4.67
2019-02-19T20:58:59.778Z,2.07
2019-02-19T21:01:28.646Z,4.20
2019-02-19T21:03:57.400Z,2.60
2019-02-19T21:06:26.491Z,5.53
2019-02-19T21:08:55.516Z,4.30
2019-02-19T21:11:24.363Z,6.60
2019-02-19T21:13:53.391Z,3.53
2019-02-19T21:16:22.599Z,1.63
2019-02-19T21:18:54.579Z,5.03
2019-02-19T21:21:23.449Z,4.77
2019-02-19T21:23:52.280Z,3.93
2019-02-19T21:26:22.802Z,4.13
2019-02-19T21:28:54.745Z,7.43
2019-02-19T21:31:23.557Z,5.20
2019-02-19T21:33:52.565Z,3.13
2019-02-19T21:36:24.391Z,2.33
2019-02-19T21:38:53.389Z,3.73
2019-02-19T21:41:22.224Z,2.57
2019-02-19T21:43:53.735Z,6.17
2019-02-19T21:46:22.614Z,4.00
2019-02-19T21:48:54.338Z,4.33
2019-02-19T21:51:23.415Z,3.00
2019-02-19T21:53:53.911Z,5.70
2019-02-19T21:56:22.651Z,3.23
2019-02-19T21:58:53.252Z,6.23
2019-02-19T22:01:22.364Z,7.40
2019-02-19T22:03:52.798Z,3.93
2019-02-19T22:06:21.751Z,3.77
2019-02-19T22:08:53.574Z,4.30
2019-02-19T22:11:23.132Z,3.20
2019-02-19T22:13:52.054Z,4.57
2019-02-19T22:16:21.175Z,3.53
2019-02-19T22:18:50.072Z,3.50
2019-02-19T22:21:26.712Z,3.60
2019-02-19T22:23:55.457Z,2.47
2019-02-19T22:26:24.299Z,4.97
2019-02-19T22:28:56.319Z,1.67
2019-02-19T22:31:25.274Z,1.80
2019-02-19T22:33:54.116Z,2.10
2019-02-19T22:36:23.236Z,1.93
2019-02-19T22:38:52.257Z,7.20
2019-02-19T22:41:21.339Z,3.50
2019-02-19T22:43:50.658Z,5.10
2019-02-19T22:46:24.131Z,2.93
2019-02-19T22:48:53.744Z,2.90
2019-02-19T22:51:22.721Z,4.03
2019-02-19T22:53:53.316Z,2.67
2019-02-19T22:56:23.940Z,2.97
2019-02-19T22:58:52.699Z,2.33
2019-02-19T23:01:33.689Z,3.30
2019-02-19T23:04:03.159Z,4.53
2019-02-19T23:06:32.186Z,3.57
2019-02-19T23:09:01.072Z,3.33
2019-02-19T23:11:33.240Z,3.93
2019-02-19T23:14:05.180Z,6.03
2019-02-19T23:16:33.906Z,4.73
2019-02-19T23:19:02.705Z,2.37
2019-02-19T23:21:31.745Z,2.53
2019-02-19T23:24:01.325Z,2.43
2019-02-19T23:26:30.291Z,5.50
2019-02-19T23:28:59.211Z,3.07
2019-02-19T23:31:28.099Z,4.20
2019-02-19T23:33:57.111Z,1.27
2019-02-19T23:36:27.906Z,4.73
2019-02-19T23:38:56.758Z,3.97
2019-02-19T23:41:25.569Z,3.13
2019-02-19T23:43:54.626Z,0.80
2019-02-19T23:46:23.463Z,4.83
2019-02-19T23:48:52.359Z,4.33
2019-02-19T23:51:22.926Z,1.70
2019-02-19T23:53:54.867Z,3.63
2019-02-19T23:56:24.097Z,5.27
2019-02-19T23:58:53.051Z,3.10
